Aviation Digital Data Service (ADDS)

Output produced by METARs form (0207 UTC 16 January 2019)
found at http://www.aviationweather.gov/metar/data/
 
GBYD 160200Z 31007KT CAVOK 19/12 Q1012
TAF GBYD 152330Z 1600/1706 34008KT CAVOK